sensor_id;sensor_type;location;lat;lon;timestamp;pressure;altitude;pressure_sealevel;temperature
19644;BMP180;9970;-36.854;174.870;2023-11-21T00:00:20;101561.00;;;22.00
19644;BMP180;9970;-36.854;174.870;2023-11-21T00:02:54;101564.00;;;22.00
19644;BMP180;9970;-36.854;174.870;2023-11-21T00:05:28;101557.00;;;22.00
19644;BMP180;9970;-36.854;174.870;2023-11-21T00:08:01;101551.00;;;22.00
19644;BMP180;9970;-36.854;174.870;2023-11-21T00:10:34;101559.00;;;22.00
19644;BMP180;9970;-36.854;174.870;2023-11-21T00:13:09;101555.00;;;22.00
19644;BMP180;9970;-36.854;174.870;2023-11-21T00:15:43;101551.00;;;22.00
19644;BMP180;9970;-36.854;174.870;2023-11-21T00:18:16;101554.00;;;22.00
19644;BMP180;9970;-36.854;174.870;2023-11-21T00:20:49;101545.00;;;22.00
19644;BMP180;9970;-36.854;174.870;2023-11-21T00:23:22;101543.00;;;22.00
19644;BMP180;9970;-36.854;174.870;2023-11-21T00:25:55;101543.00;;;22.10
19644;BMP180;9970;-36.854;174.870;2023-11-21T00:28:28;101531.00;;;22.00
19644;BMP180;9970;-36.854;174.870;2023-11-21T00:31:01;101537.00;;;22.00
19644;BMP180;9970;-36.854;174.870;2023-11-21T00:33:35;101533.00;;;22.10
19644;BMP180;9970;-36.854;174.870;2023-11-21T00:36:09;101541.00;;;22.10
19644;BMP180;9970;-36.854;174.870;2023-11-21T00:38:42;101533.00;;;22.10
19644;BMP180;9970;-36.854;174.870;2023-11-21T00:41:15;101535.00;;;22.00
19644;BMP180;9970;-36.854;174.870;2023-11-21T00:43:47;101541.00;;;22.00
19644;BMP180;9970;-36.854;174.870;2023-11-21T00:46:20;101541.00;;;22.00
19644;BMP180;9970;-36.854;174.870;2023-11-21T00:48:55;101536.00;;;22.00
19644;BMP180;9970;-36.854;174.870;2023-11-21T00:51:28;101534.00;;;22.00
19644;BMP180;9970;-36.854;174.870;2023-11-21T00:54:01;101535.00;;;22.00
19644;BMP180;9970;-36.854;174.870;2023-11-21T00:56:34;101534.00;;;22.00
19644;BMP180;9970;-36.854;174.870;2023-11-21T00:59:08;101536.00;;;22.00
19644;BMP180;9970;-36.854;174.870;2023-11-21T01:01:41;101526.00;;;22.00
19644;BMP180;9970;-36.854;174.870;2023-11-21T01:04:16;101516.00;;;22.00
19644;BMP180;9970;-36.854;174.870;2023-11-21T01:06:49;101520.00;;;22.00
19644;BMP180;9970;-36.854;174.870;2023-11-21T01:09:21;101522.00;;;22.00
19644;BMP180;9970;-36.854;174.870;2023-11-21T01:11:55;101520.00;;;22.00
19644;BMP180;9970;-36.854;174.870;2023-11-21T01:14:28;101519.00;;;22.00
19644;BMP180;9970;-36.854;174.870;2023-11-21T01:17:01;101522.00;;;22.00
19644;BMP180;9970;-36.854;174.870;2023-11-21T01:19:44;101526.00;;;22.00
19644;BMP180;9970;-36.854;174.870;2023-11-21T01:22:39;101523.00;;;21.90
19644;BMP180;9970;-36.854;174.870;2023-11-21T01:25:15;101516.00;;;21.90
19644;BMP180;9970;-36.854;174.870;2023-11-21T01:27:48;101529.00;;;21.90
19644;BMP180;9970;-36.854;174.870;2023-11-21T01:30:21;101530.00;;;21.90
19644;BMP180;9970;-36.854;174.870;2023-11-21T01:32:54;101529.00;;;21.80
19644;BMP180;9970;-36.854;174.870;2023-11-21T01:35:29;101528.00;;;21.80
19644;BMP180;9970;-36.854;174.870;2023-11-21T01:38:02;101540.00;;;21.80
19644;BMP180;9970;-36.854;174.870;2023-11-21T01:40:35;101530.00;;;21.80
19644;BMP180;9970;-36.854;174.870;2023-11-21T01:43:08;101520.00;;;21.80
19644;BMP180;9970;-36.854;174.870;2023-11-21T01:45:40;101530.00;;;21.80
19644;BMP180;9970;-36.854;174.870;2023-11-21T01:48:14;101519.00;;;21.80
19644;BMP180;9970;-36.854;174.870;2023-11-21T01:50:47;101528.00;;;21.70
19644;BMP180;9970;-36.854;174.870;2023-11-21T01:53:24;101530.00;;;21.70
19644;BMP180;9970;-36.854;174.870;2023-11-21T01:55:58;101526.00;;;21.70
19644;BMP180;9970;-36.854;174.870;2023-11-21T01:58:32;101525.00;;;21.70
19644;BMP180;9970;-36.854;174.870;2023-11-21T02:01:05;101525.00;;;21.70
19644;BMP180;9970;-36.854;174.870;2023-11-21T02:03:38;101526.00;;;21.70
19644;BMP180;9970;-36.854;174.870;2023-11-21T02:06:11;101524.00;;;21.60
19644;BMP180;9970;-36.854;174.870;2023-11-21T02:08:44;101521.00;;;21.60
19644;BMP180;9970;-36.854;174.870;2023-11-21T02:11:17;101523.00;;;21.60
19644;BMP180;9970;-36.854;174.870;2023-11-21T02:13:50;101522.00;;;21.60
19644;BMP180;9970;-36.854;174.870;2023-11-21T02:16:27;101522.00;;;21.60
19644;BMP180;9970;-36.854;174.870;2023-11-21T02:19:01;101525.00;;;21.60
19644;BMP180;9970;-36.854;174.870;2023-11-21T02:21:35;101530.00;;;21.50
19644;BMP180;9970;-36.854;174.870;2023-11-21T02:24:09;101529.00;;;21.50
19644;BMP180;9970;-36.854;174.870;2023-11-21T02:26:42;101523.00;;;21.50
19644;BMP180;9970;-36.854;174.870;2023-11-21T02:29:20;101521.00;;;21.50
19644;BMP180;9970;-36.854;174.870;2023-11-21T02:31:52;101524.00;;;21.50
19644;BMP180;9970;-36.854;174.870;2023-11-21T02:34:26;101519.00;;;21.50
19644;BMP180;9970;-36.854;174.870;2023-11-21T02:36:59;101517.00;;;21.40
19644;BMP180;9970;-36.854;174.870;2023-11-21T02:39:32;101515.00;;;21.40
19644;BMP180;9970;-36.854;174.870;2023-11-21T02:42:05;101521.00;;;21.40
19644;BMP180;9970;-36.854;174.870;2023-11-21T02:44:39;101528.00;;;21.40
19644;BMP180;9970;-36.854;174.870;2023-11-21T02:47:11;101523.00;;;21.40
19644;BMP180;9970;-36.854;174.870;2023-11-21T02:49:45;101525.00;;;21.40
19644;BMP180;9970;-36.854;174.870;2023-11-21T02:52:18;101523.00;;;21.30
19644;BMP180;9970;-36.854;174.870;2023-11-21T02:54:51;101528.00;;;21.30
19644;BMP180;9970;-36.854;174.870;2023-11-21T02:57:24;101534.00;;;21.30
19644;BMP180;9970;-36.854;174.870;2023-11-21T02:59:58;101526.00;;;21.30
19644;BMP180;9970;-36.854;174.870;2023-11-21T03:02:31;101541.00;;;21.20
19644;BMP180;9970;-36.854;174.870;2023-11-21T03:05:07;101530.00;;;21.20
19644;BMP180;9970;-36.854;174.870;2023-11-21T03:07:41;101536.00;;;21.20
19644;BMP180;9970;-36.854;174.870;2023-11-21T03:10:14;101536.00;;;21.20
19644;BMP180;9970;-36.854;174.870;2023-11-21T03:12:47;101517.00;;;21.20
19644;BMP180;9970;-36.854;174.870;2023-11-21T03:15:20;101520.00;;;21.20
19644;BMP180;9970;-36.854;174.870;2023-11-21T03:17:53;101520.00;;;21.20
19644;BMP180;9970;-36.854;174.870;2023-11-21T03:20:26;101522.00;;;21.20
19644;BMP180;9970;-36.854;174.870;2023-11-21T03:23:03;101517.00;;;21.20
19644;BMP180;9970;-36.854;174.870;2023-11-21T03:25:36;101521.00;;;21.20
19644;BMP180;9970;-36.854;174.870;2023-11-21T03:28:09;101519.00;;;21.20
19644;BMP180;9970;-36.854;174.870;2023-11-21T03:30:46;101515.00;;;21.20
19644;BMP180;9970;-36.854;174.870;2023-11-21T03:33:19;101517.00;;;21.20
19644;BMP180;9970;-36.854;174.870;2023-11-21T03:35:52;101519.00;;;21.20
19644;BMP180;9970;-36.854;174.870;2023-11-21T03:38:25;101509.00;;;21.20
19644;BMP180;9970;-36.854;174.870;2023-11-21T03:40:59;101519.00;;;21.20
19644;BMP180;9970;-36.854;174.870;2023-11-21T03:43:32;101512.00;;;21.20
19644;BMP180;9970;-36.854;174.870;2023-11-21T03:46:05;101516.00;;;21.20
19644;BMP180;9970;-36.854;174.870;2023-11-21T03:48:38;101517.00;;;21.20
19644;BMP180;9970;-36.854;174.870;2023-11-21T03:51:11;101504.00;;;21.20
19644;BMP180;9970;-36.854;174.870;2023-11-21T03:53:44;101505.00;;;21.20
19644;BMP180;9970;-36.854;174.870;2023-11-21T03:56:17;101506.00;;;21.20
19644;BMP180;9970;-36.854;174.870;2023-11-21T03:58:50;101510.00;;;21.20
19644;BMP180;9970;-36.854;174.870;2023-11-21T04:01:23;101515.00;;;21.20
19644;BMP180;9970;-36.854;174.870;2023-11-21T04:03:56;101508.00;;;21.20
19644;BMP180;9970;-36.854;174.870;2023-11-21T04:06:33;101517.00;;;21.20
19644;BMP180;9970;-36.854;174.870;2023-11-21T04:09:07;101518.00;;;21.20
19644;BMP180;9970;-36.854;174.870;2023-11-21T04:11:40;101510.00;;;21.20
19644;BMP180;9970;-36.854;174.870;2023-11-21T04:14:14;101517.00;;;21.20
19644;BMP180;9970;-36.854;174.870;2023-11-21T04:16:47;101512.00;;;21.20
19644;BMP180;9970;-36.854;174.870;2023-11-21T04:19:21;101515.00;;;21.10
19644;BMP180;9970;-36.854;174.870;2023-11-21T04:21:54;101509.00;;;21.10
19644;BMP180;9970;-36.854;174.870;2023-11-21T04:24:27;101511.00;;;21.10
19644;BMP180;9970;-36.854;174.870;2023-11-21T04:27:00;101506.00;;;21.10
19644;BMP180;9970;-36.854;174.870;2023-11-21T04:29:34;101513.00;;;21.00
19644;BMP180;9970;-36.854;174.870;2023-11-21T04:32:07;101510.00;;;21.00
19644;BMP180;9970;-36.854;174.870;2023-11-21T04:34:40;101519.00;;;21.00
19644;BMP180;9970;-36.854;174.870;2023-11-21T04:37:13;101515.00;;;21.00
19644;BMP180;9970;-36.854;174.870;2023-11-21T04:39:46;101524.00;;;20.90
19644;BMP180;9970;-36.854;174.870;2023-11-21T04:42:18;101527.00;;;20.90
19644;BMP180;9970;-36.854;174.870;2023-11-21T04:44:51;101533.00;;;20.90
19644;BMP180;9970;-36.854;174.870;2023-11-21T04:47:24;101541.00;;;20.90
19644;BMP180;9970;-36.854;174.870;2023-11-21T04:49:57;101555.00;;;20.80
19644;BMP180;9970;-36.854;174.870;2023-11-21T04:52:30;101549.00;;;20.80
19644;BMP180;9970;-36.854;174.870;2023-11-21T04:55:04;101565.00;;;20.80
19644;BMP180;9970;-36.854;174.870;2023-11-21T04:57:39;101558.00;;;20.80
19644;BMP180;9970;-36.854;174.870;2023-11-21T05:00:15;101571.00;;;20.80
19644;BMP180;9970;-36.854;174.870;2023-11-21T05:02:48;101574.00;;;20.80
19644;BMP180;9970;-36.854;174.870;2023-11-21T05:05:22;101580.00;;;20.70
19644;BMP180;9970;-36.854;174.870;2023-11-21T05:07:55;101585.00;;;20.70
19644;BMP180;9970;-36.854;174.870;2023-11-21T05:10:28;101584.00;;;20.70
19644;BMP180;9970;-36.854;174.870;2023-11-21T05:13:01;101581.00;;;20.70
19644;BMP180;9970;-36.854;174.870;2023-11-21T05:15:34;101591.00;;;20.60
19644;BMP180;9970;-36.854;174.870;2023-11-21T05:18:07;101585.00;;;20.50
19644;BMP180;9970;-36.854;174.870;2023-11-21T05:20:41;101575.00;;;20.40
19644;BMP180;9970;-36.854;174.870;2023-11-21T05:23:14;101564.00;;;20.30
19644;BMP180;9970;-36.854;174.870;2023-11-21T05:25:47;101559.00;;;20.20
19644;BMP180;9970;-36.854;174.870;2023-11-21T05:28:20;101554.00;;;20.10
19644;BMP180;9970;-36.854;174.870;2023-11-21T05:30:53;101549.00;;;20.10
19644;BMP180;9970;-36.854;174.870;2023-11-21T05:33:27;101553.00;;;20.10
19644;BMP180;9970;-36.854;174.870;2023-11-21T05:36:00;101558.00;;;20.10
19644;BMP180;9970;-36.854;174.870;2023-11-21T05:38:32;101564.00;;;20.10
19644;BMP180;9970;-36.854;174.870;2023-11-21T05:41:06;101565.00;;;20.10
19644;BMP180;9970;-36.854;174.870;2023-11-21T05:43:40;101567.00;;;20.10
19644;BMP180;9970;-36.854;174.870;2023-11-21T05:46:13;101565.00;;;20.10
19644;BMP180;9970;-36.854;174.870;2023-11-21T05:48:46;101574.00;;;20.10
19644;BMP180;9970;-36.854;174.870;2023-11-21T05:51:19;101565.00;;;20.10
19644;BMP180;9970;-36.854;174.870;2023-11-21T05:53:52;101568.00;;;20.10
19644;BMP180;9970;-36.854;174.870;2023-11-21T05:56:27;101578.00;;;20.10
19644;BMP180;9970;-36.854;174.870;2023-11-21T05:59:05;101576.00;;;20.00
19644;BMP180;9970;-36.854;174.870;2023-11-21T06:01:38;101577.00;;;20.00
19644;BMP180;9970;-36.854;174.870;2023-11-21T06:04:12;101584.00;;;20.00
19644;BMP180;9970;-36.854;174.870;2023-11-21T06:06:45;101583.00;;;20.00
19644;BMP180;9970;-36.854;174.870;2023-11-21T06:09:19;101579.00;;;20.00
19644;BMP180;9970;-36.854;174.870;2023-11-21T06:11:52;101580.00;;;20.00
19644;BMP180;9970;-36.854;174.870;2023-11-21T06:14:25;101585.00;;;20.00
19644;BMP180;9970;-36.854;174.870;2023-11-21T06:17:00;101597.00;;;20.00
19644;BMP180;9970;-36.854;174.870;2023-11-21T06:19:33;101607.00;;;20.00
19644;BMP180;9970;-36.854;174.870;2023-11-21T06:22:06;101614.00;;;20.00
19644;BMP180;9970;-36.854;174.870;2023-11-21T06:24:39;101604.00;;;20.00
19644;BMP180;9970;-36.854;174.870;2023-11-21T06:27:13;101613.00;;;19.90
19644;BMP180;9970;-36.854;174.870;2023-11-21T06:29:47;101616.00;;;20.00
19644;BMP180;9970;-36.854;174.870;2023-11-21T06:32:19;101619.00;;;19.90
19644;BMP180;9970;-36.854;174.870;2023-11-21T06:34:57;101634.00;;;19.90
19644;BMP180;9970;-36.854;174.870;2023-11-21T06:37:34;101629.00;;;19.90
19644;BMP180;9970;-36.854;174.870;2023-11-21T06:40:08;101636.00;;;19.90
19644;BMP180;9970;-36.854;174.870;2023-11-21T06:42:41;101644.00;;;19.80
19644;BMP180;9970;-36.854;174.870;2023-11-21T06:45:15;101644.00;;;19.80
19644;BMP180;9970;-36.854;174.870;2023-11-21T06:47:48;101651.00;;;19.80
19644;BMP180;9970;-36.854;174.870;2023-11-21T06:50:22;101657.00;;;19.80
19644;BMP180;9970;-36.854;174.870;2023-11-21T06:52:55;101654.00;;;19.70
19644;BMP180;9970;-36.854;174.870;2023-11-21T06:55:33;101660.00;;;19.70
19644;BMP180;9970;-36.854;174.870;2023-11-21T06:58:03;101660.00;;;19.70
19644;BMP180;9970;-36.854;174.870;2023-11-21T07:00:36;101659.00;;;19.70
19644;BMP180;9970;-36.854;174.870;2023-11-21T07:03:09;101671.00;;;19.70
19644;BMP180;9970;-36.854;174.870;2023-11-21T07:05:42;101669.00;;;19.70
19644;BMP180;9970;-36.854;174.870;2023-11-21T07:08:15;101674.00;;;19.70
19644;BMP180;9970;-36.854;174.870;2023-11-21T07:10:48;101667.00;;;19.70
19644;BMP180;9970;-36.854;174.870;2023-11-21T07:13:21;101663.00;;;19.70
19644;BMP180;9970;-36.854;174.870;2023-11-21T07:15:54;101661.00;;;19.70
19644;BMP180;9970;-36.854;174.870;2023-11-21T07:18:27;101670.00;;;19.70
19644;BMP180;9970;-36.854;174.870;2023-11-21T07:20:59;101663.00;;;19.70
19644;BMP180;9970;-36.854;174.870;2023-11-21T07:23:33;101664.00;;;19.70
19644;BMP180;9970;-36.854;174.870;2023-11-21T07:26:06;101659.00;;;19.70
19644;BMP180;9970;-36.854;174.870;2023-11-21T07:28:40;101660.00;;;19.70
19644;BMP180;9970;-36.854;174.870;2023-11-21T07:31:13;101680.00;;;19.70
19644;BMP180;9970;-36.854;174.870;2023-11-21T07:33:47;101673.00;;;19.70
19644;BMP180;9970;-36.854;174.870;2023-11-21T07:36:21;101677.00;;;19.70
19644;BMP180;9970;-36.854;174.870;2023-11-21T07:38:54;101678.00;;;19.70
19644;BMP180;9970;-36.854;174.870;2023-11-21T07:41:27;101677.00;;;19.70
19644;BMP180;9970;-36.854;174.870;2023-11-21T07:44:00;101671.00;;;19.70
19644;BMP180;9970;-36.854;174.870;2023-11-21T07:46:33;101674.00;;;19.60
19644;BMP180;9970;-36.854;174.870;2023-11-21T07:49:06;101677.00;;;19.60
19644;BMP180;9970;-36.854;174.870;2023-11-21T07:51:40;101685.00;;;19.60
19644;BMP180;9970;-36.854;174.870;2023-11-21T07:54:13;101682.00;;;19.60
19644;BMP180;9970;-36.854;174.870;2023-11-21T07:56:47;101683.00;;;19.60
19644;BMP180;9970;-36.854;174.870;2023-11-21T07:59:20;101686.00;;;19.60
19644;BMP180;9970;-36.854;174.870;2023-11-21T08:01:52;101684.00;;;19.60
19644;BMP180;9970;-36.854;174.870;2023-11-21T08:04:25;101690.00;;;19.60
19644;BMP180;9970;-36.854;174.870;2023-11-21T08:06:59;101688.00;;;19.60
19644;BMP180;9970;-36.854;174.870;2023-11-21T08:09:36;101695.00;;;19.60
19644;BMP180;9970;-36.854;174.870;2023-11-21T08:12:09;101703.00;;;19.60
19644;BMP180;9970;-36.854;174.870;2023-11-21T08:14:42;101714.00;;;19.60
19644;BMP180;9970;-36.854;174.870;2023-11-21T08:17:16;101710.00;;;19.60
19644;BMP180;9970;-36.854;174.870;2023-11-21T08:19:52;101715.00;;;19.60
19644;BMP180;9970;-36.854;174.870;2023-11-21T08:22:25;101711.00;;;19.60
19644;BMP180;9970;-36.854;174.870;2023-11-21T08:24:58;101721.00;;;19.60
19644;BMP180;9970;-36.854;174.870;2023-11-21T08:27:31;101714.00;;;19.50
19644;BMP180;9970;-36.854;174.870;2023-11-21T08:30:05;101718.00;;;19.50
19644;BMP180;9970;-36.854;174.870;2023-11-21T08:32:38;101717.00;;;19.50
19644;BMP180;9970;-36.854;174.870;2023-11-21T08:35:11;101722.00;;;19.50
19644;BMP180;9970;-36.854;174.870;2023-11-21T08:37:44;101726.00;;;19.50
19644;BMP180;9970;-36.854;174.870;2023-11-21T08:40:18;101734.00;;;19.60
19644;BMP180;9970;-36.854;174.870;2023-11-21T08:42:52;101738.00;;;19.50
19644;BMP180;9970;-36.854;174.870;2023-11-21T08:45:25;101740.00;;;19.50
19644;BMP180;9970;-36.854;174.870;2023-11-21T08:47:58;101740.00;;;19.50
19644;BMP180;9970;-36.854;174.870;2023-11-21T08:50:32;101738.00;;;19.50
19644;BMP180;9970;-36.854;174.870;2023-11-21T08:53:05;101747.00;;;19.50
19644;BMP180;9970;-36.854;174.870;2023-11-21T08:55:38;101755.00;;;19.40
19644;BMP180;9970;-36.854;174.870;2023-11-21T08:58:11;101762.00;;;19.50
19644;BMP180;9970;-36.854;174.870;2023-11-21T09:00:44;101767.00;;;19.50
19644;BMP180;9970;-36.854;174.870;2023-11-21T09:03:18;101763.00;;;19.50
19644;BMP180;9970;-36.854;174.870;2023-11-21T09:05:52;101776.00;;;19.50
19644;BMP180;9970;-36.854;174.870;2023-11-21T09:08:25;101775.00;;;19.50
19644;BMP180;9970;-36.854;174.870;2023-11-21T09:10:59;101781.00;;;19.50
19644;BMP180;9970;-36.854;174.870;2023-11-21T09:13:33;101772.00;;;19.50
19644;BMP180;9970;-36.854;174.870;2023-11-21T09:16:10;101772.00;;;19.50
19644;BMP180;9970;-36.854;174.870;2023-11-21T09:18:43;101781.00;;;19.50
19644;BMP180;9970;-36.854;174.870;2023-11-21T09:21:16;101775.00;;;19.50
19644;BMP180;9970;-36.854;174.870;2023-11-21T09:23:49;101784.00;;;19.50
19644;BMP180;9970;-36.854;174.870;2023-11-21T09:26:22;101787.00;;;19.50
19644;BMP180;9970;-36.854;174.870;2023-11-21T09:28:55;101773.00;;;19.40
19644;BMP180;9970;-36.854;174.870;2023-11-21T09:31:28;101770.00;;;19.40
19644;BMP180;9970;-36.854;174.870;2023-11-21T09:34:02;101775.00;;;19.40
19644;BMP180;9970;-36.854;174.870;2023-11-21T09:36:35;101773.00;;;19.40
19644;BMP180;9970;-36.854;174.870;2023-11-21T09:39:09;101769.00;;;19.40
19644;BMP180;9970;-36.854;174.870;2023-11-21T09:41:49;101758.00;;;19.40
19644;BMP180;9970;-36.854;174.870;2023-11-21T09:47:12;101757.00;;;19.40
19644;BMP180;9970;-36.854;174.870;2023-11-21T09:49:48;101754.00;;;19.40
19644;BMP180;9970;-36.854;174.870;2023-11-21T09:52:25;101754.00;;;19.40
19644;BMP180;9970;-36.854;174.870;2023-11-21T09:55:00;101760.00;;;19.40
19644;BMP180;9970;-36.854;174.870;2023-11-21T09:57:34;101751.00;;;19.40
19644;BMP180;9970;-36.854;174.870;2023-11-21T10:00:07;101748.00;;;19.40
19644;BMP180;9970;-36.854;174.870;2023-11-21T10:02:42;101754.00;;;19.40
19644;BMP180;9970;-36.854;174.870;2023-11-21T10:05:16;101755.00;;;19.40
19644;BMP180;9970;-36.854;174.870;2023-11-21T10:07:50;101763.00;;;19.40
19644;BMP180;9970;-36.854;174.870;2023-11-21T10:10:24;101766.00;;;19.40
19644;BMP180;9970;-36.854;174.870;2023-11-21T10:12:58;101762.00;;;19.40
19644;BMP180;9970;-36.854;174.870;2023-11-21T10:15:34;101749.00;;;19.40
19644;BMP180;9970;-36.854;174.870;2023-11-21T10:18:08;101753.00;;;19.40
19644;BMP180;9970;-36.854;174.870;2023-11-21T10:20:41;101753.00;;;19.40
19644;BMP180;9970;-36.854;174.870;2023-11-21T10:23:15;101755.00;;;19.40
19644;BMP180;9970;-36.854;174.870;2023-11-21T10:25:48;101760.00;;;19.40
19644;BMP180;9970;-36.854;174.870;2023-11-21T10:28:24;101762.00;;;19.40
19644;BMP180;9970;-36.854;174.870;2023-11-21T10:30:57;101755.00;;;19.40
19644;BMP180;9970;-36.854;174.870;2023-11-21T10:33:30;101767.00;;;19.40
19644;BMP180;9970;-36.854;174.870;2023-11-21T10:36:04;101763.00;;;19.40
19644;BMP180;9970;-36.854;174.870;2023-11-21T10:38:43;101767.00;;;19.40
19644;BMP180;9970;-36.854;174.870;2023-11-21T10:41:21;101757.00;;;19.40
19644;BMP180;9970;-36.854;174.870;2023-11-21T10:43:54;101760.00;;;19.40
19644;BMP180;9970;-36.854;174.870;2023-11-21T10:46:28;101755.00;;;19.40
19644;BMP180;9970;-36.854;174.870;2023-11-21T10:49:01;101754.00;;;19.40
19644;BMP180;9970;-36.854;174.870;2023-11-21T10:51:34;101751.00;;;19.40
19644;BMP180;9970;-36.854;174.870;2023-11-21T10:54:07;101753.00;;;19.40
19644;BMP180;9970;-36.854;174.870;2023-11-21T10:56:41;101749.00;;;19.40
19644;BMP180;9970;-36.854;174.870;2023-11-21T10:59:15;101744.00;;;19.40
19644;BMP180;9970;-36.854;174.870;2023-11-21T11:01:48;101745.00;;;19.40
19644;BMP180;9970;-36.854;174.870;2023-11-21T11:04:22;101745.00;;;19.40
19644;BMP180;9970;-36.854;174.870;2023-11-21T11:06:57;101742.00;;;19.40
19644;BMP180;9970;-36.854;174.870;2023-11-21T11:09:32;101742.00;;;19.40
19644;BMP180;9970;-36.854;174.870;2023-11-21T11:12:09;101743.00;;;19.40
19644;BMP180;9970;-36.854;174.870;2023-11-21T11:14:42;101746.00;;;19.40
19644;BMP180;9970;-36.854;174.870;2023-11-21T11:17:16;101745.00;;;19.40
19644;BMP180;9970;-36.854;174.870;2023-11-21T11:19:51;101732.00;;;19.40
19644;BMP180;9970;-36.854;174.870;2023-11-21T11:28:19;101739.00;;;19.30
19644;BMP180;9970;-36.854;174.870;2023-11-21T11:31:14;101744.00;;;19.30
19644;BMP180;9970;-36.854;174.870;2023-11-21T11:33:57;101738.00;;;19.30
19644;BMP180;9970;-36.854;174.870;2023-11-21T11:36:35;101736.00;;;19.30
19644;BMP180;9970;-36.854;174.870;2023-11-21T11:39:04;101731.00;;;19.30
19644;BMP180;9970;-36.854;174.870;2023-11-21T11:41:43;101727.00;;;19.30
19644;BMP180;9970;-36.854;174.870;2023-11-21T11:44:59;101723.00;;;19.30
19644;BMP180;9970;-36.854;174.870;2023-11-21T11:46:54;101719.00;;;19.30
19644;BMP180;9970;-36.854;174.870;2023-11-21T11:49:29;101722.00;;;19.30
19644;BMP180;9970;-36.854;174.870;2023-11-21T11:55:15;101712.00;;;19.30
19644;BMP180;9970;-36.854;174.870;2023-11-21T11:57:52;101701.00;;;19.20
19644;BMP180;9970;-36.854;174.870;2023-11-21T12:03:06;101699.00;;;19.20
19644;BMP180;9970;-36.854;174.870;2023-11-21T12:05:41;101695.00;;;19.20
19644;BMP180;9970;-36.854;174.870;2023-11-21T12:08:16;101696.00;;;19.20
19644;BMP180;9970;-36.854;174.870;2023-11-21T12:10:49;101693.00;;;19.10
19644;BMP180;9970;-36.854;174.870;2023-11-21T12:13:23;101689.00;;;19.10
19644;BMP180;9970;-36.854;174.870;2023-11-21T12:15:56;101695.00;;;19.10
19644;BMP180;9970;-36.854;174.870;2023-11-21T12:18:29;101680.00;;;19.10
19644;BMP180;9970;-36.854;174.870;2023-11-21T12:21:04;101696.00;;;19.10
19644;BMP180;9970;-36.854;174.870;2023-11-21T12:23:37;101693.00;;;19.10
19644;BMP180;9970;-36.854;174.870;2023-11-21T12:26:10;101687.00;;;19.00
19644;BMP180;9970;-36.854;174.870;2023-11-21T12:28:46;101685.00;;;19.00
19644;BMP180;9970;-36.854;174.870;2023-11-21T12:31:18;101679.00;;;19.00
19644;BMP180;9970;-36.854;174.870;2023-11-21T12:33:52;101672.00;;;19.00
19644;BMP180;9970;-36.854;174.870;2023-11-21T12:36:25;101679.00;;;18.90
19644;BMP180;9970;-36.854;174.870;2023-11-21T12:38:59;101676.00;;;18.90
19644;BMP180;9970;-36.854;174.870;2023-11-21T12:41:34;101678.00;;;18.90
19644;BMP180;9970;-36.854;174.870;2023-11-21T12:44:12;101685.00;;;18.90
19644;BMP180;9970;-36.854;174.870;2023-11-21T12:46:46;101689.00;;;18.90
19644;BMP180;9970;-36.854;174.870;2023-11-21T12:49:19;101684.00;;;18.90
19644;BMP180;9970;-36.854;174.870;2023-11-21T12:51:53;101673.00;;;18.90
19644;BMP180;9970;-36.854;174.870;2023-11-21T12:54:26;101674.00;;;18.80
19644;BMP180;9970;-36.854;174.870;2023-11-21T12:57:00;101686.00;;;18.80
19644;BMP180;9970;-36.854;174.870;2023-11-21T12:59:34;101673.00;;;18.80
19644;BMP180;9970;-36.854;174.870;2023-11-21T13:02:07;101673.00;;;18.80
19644;BMP180;9970;-36.854;174.870;2023-11-21T13:04:41;101668.00;;;18.80
19644;BMP180;9970;-36.854;174.870;2023-11-21T13:07:14;101662.00;;;18.80
19644;BMP180;9970;-36.854;174.870;2023-11-21T13:09:48;101666.00;;;18.70
19644;BMP180;9970;-36.854;174.870;2023-11-21T13:12:26;101664.00;;;18.70
19644;BMP180;9970;-36.854;174.870;2023-11-21T13:15:03;101661.00;;;18.70
19644;BMP180;9970;-36.854;174.870;2023-11-21T13:17:33;101659.00;;;18.70
19644;BMP180;9970;-36.854;174.870;2023-11-21T13:20:07;101659.00;;;18.60
19644;BMP180;9970;-36.854;174.870;2023-11-21T13:22:51;101661.00;;;18.60
19644;BMP180;9970;-36.854;174.870;2023-11-21T13:25:18;101666.00;;;18.60
19644;BMP180;9970;-36.854;174.870;2023-11-21T13:27:51;101661.00;;;18.60
19644;BMP180;9970;-36.854;174.870;2023-11-21T13:30:25;101663.00;;;18.60
19644;BMP180;9970;-36.854;174.870;2023-11-21T13:33:08;101658.00;;;18.50
19644;BMP180;9970;-36.854;174.870;2023-11-21T13:35:42;101662.00;;;18.50
19644;BMP180;9970;-36.854;174.870;2023-11-21T13:38:17;101676.00;;;18.60
19644;BMP180;9970;-36.854;174.870;2023-11-21T13:40:53;101676.00;;;18.50
19644;BMP180;9970;-36.854;174.870;2023-11-21T13:43:29;101670.00;;;18.50
19644;BMP180;9970;-36.854;174.870;2023-11-21T13:46:03;101670.00;;;18.50
19644;BMP180;9970;-36.854;174.870;2023-11-21T13:48:42;101666.00;;;18.50
19644;BMP180;9970;-36.854;174.870;2023-11-21T13:51:16;101656.00;;;18.50
19644;BMP180;9970;-36.854;174.870;2023-11-21T13:53:52;101659.00;;;18.50
19644;BMP180;9970;-36.854;174.870;2023-11-21T13:56:26;101644.00;;;18.50
19644;BMP180;9970;-36.854;174.870;2023-11-21T13:59:00;101658.00;;;18.50
19644;BMP180;9970;-36.854;174.870;2023-11-21T14:01:34;101646.00;;;18.50
19644;BMP180;9970;-36.854;174.870;2023-11-21T14:04:08;101647.00;;;18.50
19644;BMP180;9970;-36.854;174.870;2023-11-21T14:06:52;101652.00;;;18.50
19644;BMP180;9970;-36.854;174.870;2023-11-21T14:09:26;101656.00;;;18.40
19644;BMP180;9970;-36.854;174.870;2023-11-21T14:12:00;101643.00;;;18.40
19644;BMP180;9970;-36.854;174.870;2023-11-21T14:14:35;101657.00;;;18.40
19644;BMP180;9970;-36.854;174.870;2023-11-21T14:17:07;101649.00;;;18.40
19644;BMP180;9970;-36.854;174.870;2023-11-21T14:19:41;101644.00;;;18.40
19644;BMP180;9970;-36.854;174.870;2023-11-21T14:22:14;101641.00;;;18.40